Time;durP1;ratioP1;P1;durP2;ratioP2;P2;SDS_P1;SDS_P2;PMS_P1;PMS_P2;Temp;Humidity;BMP_temperature;BMP_pressure;BME280_temperature;BME280_humidity;BME280_pressure;Samples;Min_cycle;Max_cycle;Signal;HPM_P1;HPM_P2
2023/04/02 00:01:27;;;;;;;;;;;;;;;;;;5028117;28;19924;-47
2023/04/02 05:07:17;;;;;;;;;;;;;;;;;;5024917;28;19915;-43
2023/04/02 05:09:43;;;;;;;;;;;;;;;;;;5025226;28;20411;-45
2023/04/02 05:12:09;;;;;;;;;;;;;;;;;;5026322;28;19917;-43
2023/04/02 05:14:35;;;;;;;;;;;;;;;;;;5003758;28;20578;-45
2023/04/02 05:17:01;;;;;;;;;;;;;;;;;;5009944;28;19943;-44
2023/04/02 05:19:27;;;;;;;;;;;;;;;;;;5023074;28;19909;-43
2023/04/02 05:21:53;;;;;;;;;;;;;;;;;;5029197;28;20317;-47
2023/04/02 05:24:19;;;;;;;;;;;;;;;;;;5027552;28;19923;-48
2023/04/02 05:26:45;;;;;;;;;;;;;;;;;;5009836;28;19909;-48
2023/04/02 05:29:11;;;;;;;;;;;;;;;;;;5009548;28;19920;-47
2023/04/02 05:31:37;;;;;;;;;;;;;;;;;;5009545;28;19909;-46
2023/04/02 05:34:03;;;;;;;;;;;;;;;;;;5009794;28;19971;-45
2023/04/02 05:36:29;;;;;;;;;;;;;;;;;;5009982;28;20037;-46
2023/04/02 05:38:55;;;;;;;;;;;;;;;;;;5009873;28;19906;-46
2023/04/02 05:41:21;;;;;;;;;;;;;;;;;;5009837;28;20000;-44
2023/04/02 05:43:47;;;;;;;;;;;;;;;;;;5009944;28;19913;-45
2023/04/02 05:46:13;;;;;;;;;;;;;;;;;;5010091;28;19928;-44
2023/04/02 05:48:39;;;;;;;;;;;;;;;;;;5010589;28;19909;-45
2023/04/02 05:51:04;;;;;;;;;;;;;;;;;;5012458;28;19909;-45
2023/04/02 05:53:31;;;;;;;;;;;;;;;;;;5012381;28;20399;-47
2023/04/02 05:55:56;;;;;;;;;;;;;;;;;;5009994;28;20396;-44
2023/04/02 05:58:22;;;;;;;;;;;;;;;;;;5009614;28;19976;-44
2023/04/02 06:00:48;;;;;;;;;;;;;;;;;;5009195;28;19905;-46
2023/04/02 06:03:14;;;;;;;;;;;;;;;;;;5009663;28;19913;-48
2023/04/02 06:05:40;;;;;;;;;;;;;;;;;;5009751;28;19909;-45
2023/04/02 06:08:06;;;;;;;;;;;;;;;;;;5015802;28;19935;-48
2023/04/02 06:10:32;;;;;;;;;;;;;;;;;;5029211;28;20379;-47
2023/04/02 06:13:02;;;;;;;;;;;;;;;;;;5028855;28;19913;-46
2023/04/02 06:15:28;;;;;;;;;;;;;;;;;;5028196;28;20427;-48
2023/04/02 06:17:54;;;;;;;;;;;;;;;;;;5029271;28;19998;-45
2023/04/02 06:20:20;;;;;;;;;;;;;;;;;;5029404;28;19909;-46
2023/04/02 06:22:46;;;;;;;;;;;;;;;;;;5048967;28;19911;-44
2023/04/02 06:25:12;;;;;;;;;;;;;;;;;;5048984;28;19908;-44
2023/04/02 06:27:37;;;;;;;;;;;;;;;;;;5041292;28;20008;-44
2023/04/02 06:30:03;;;;;;;;;;;;;;;;;;5037517;28;19905;-45
2023/04/02 06:32:29;;;;;;;;;;;;;;;;;;5047613;28;19916;-45
2023/04/02 06:34:55;;;;;;;;;;;;;;;;;;5031016;28;19924;-45
2023/04/02 06:37:21;;;;;;;;;;;;;;;;;;5027692;28;19936;-45
2023/04/02 06:39:47;;;;;;;;;;;;;;;;;;5027504;28;19916;-44
2023/04/02 06:42:13;;;;;;;;;;;;;;;;;;5027918;28;19951;-46
2023/04/02 06:44:39;;;;;;;;;;;;;;;;;;5027341;28;19920;-45
2023/04/02 06:47:06;;;;;;;;;;;;;;;;;;5044175;28;19904;-47
2023/04/02 06:49:33;;;;;;;;;;;;;;;;;;5047820;28;19962;-45
2023/04/02 06:51:59;;;;;;;;;;;;;;;;;;5047312;28;19908;-47
2023/04/02 06:54:25;;;;;;;;;;;;;;;;;;5047317;28;19913;-47
2023/04/02 06:56:51;;;;;;;;;;;;;;;;;;5047322;28;19904;-45
2023/04/02 06:59:17;;;;;;;;;;;;;;;;;;5047239;28;20388;-43
2023/04/02 07:01:43;;;;;;;;;;;;;;;;;;5047493;28;19909;-46
2023/04/02 07:04:09;;;;;;;;;;;;;;;;;;5047250;28;19920;-45
2023/04/02 07:06:34;;;;;;;;;;;;;;;;;;5028804;28;20284;-46
2023/04/02 07:09:01;;;;;;;;;;;;;;;;;;5025809;28;19920;-44
2023/04/02 07:11:27;;;;;;;;;;;;;;;;;;5026126;28;19928;-46
2023/04/02 07:13:53;;;;;;;;;;;;;;;;;;5040447;28;20360;-47
2023/04/02 07:16:19;;;;;;;;;;;;;;;;;;5025229;28;20002;-46
2023/04/02 07:18:45;;;;;;;;;;;;;;;;;;5025263;28;19916;-44
2023/04/02 07:21:11;;;;;;;;;;;;;;;;;;5025410;28;19913;-47
2023/04/02 07:23:36;;;;;;;;;;;;;;;;;;5044079;28;20307;-45
2023/04/02 07:26:02;;;;;;;;;;;;;;;;;;5049167;28;19905;-45
2023/04/02 07:28:28;;;;;;;;;;;;;;;;;;5049695;28;19901;-44
2023/04/02 07:30:54;;;;;;;;;;;;;;;;;;5049749;28;19959;-44
2023/04/02 07:33:20;;;;;;;;;;;;;;;;;;5049137;28;20352;-47
2023/04/02 07:35:47;;;;;;;;;;;;;;;;;;5049284;28;20225;-46
2023/04/02 07:38:13;;;;;;;;;;;;;;;;;;5049006;28;20322;-46
2023/04/02 07:40:39;;;;;;;;;;;;;;;;;;5049279;28;19905;-49
2023/04/02 07:43:05;;;;;;;;;;;;;;;;;;5048840;28;19966;-47
2023/04/02 07:45:31;;;;;;;;;;;;;;;;;;5048712;28;20407;-44
2023/04/02 07:47:57;;;;;;;;;;;;;;;;;;5049271;28;19904;-45
2023/04/02 07:50:23;;;;;;;;;;;;;;;;;;5048585;28;20371;-45
2023/04/02 07:52:49;;;;;;;;;;;;;;;;;;5048454;28;19909;-44
2023/04/02 07:55:15;;;;;;;;;;;;;;;;;;5048628;28;19928;-43
2023/04/02 07:57:42;;;;;;;;;;;;;;;;;;5048702;28;19967;-46
2023/04/02 08:00:09;;;;;;;;;;;;;;;;;;5048304;28;19915;-45
2023/04/02 08:02:35;;;;;;;;;;;;;;;;;;5048351;28;20353;-46
2023/04/02 08:05:01;;;;;;;;;;;;;;;;;;5048559;28;19909;-44
2023/04/02 08:07:27;;;;;;;;;;;;;;;;;;5030873;28;20367;-46
2023/04/02 08:09:53;;;;;;;;;;;;;;;;;;5048166;28;19909;-45
2023/04/02 08:12:19;;;;;;;;;;;;;;;;;;5048453;28;20435;-45
2023/04/02 08:14:45;;;;;;;;;;;;;;;;;;5048146;28;19908;-45
2023/04/02 08:17:10;;;;;;;;;;;;;;;;;;5048248;28;19908;-48
2023/04/02 08:19:37;;;;;;;;;;;;;;;;;;5047971;28;19905;-46
2023/04/02 08:22:03;;;;;;;;;;;;;;;;;;5044464;28;19905;-44
2023/04/02 08:24:29;;;;;;;;;;;;;;;;;;5028643;28;19920;-44
2023/04/02 08:26:55;;;;;;;;;;;;;;;;;;5028798;28;20058;-47
2023/04/02 08:29:21;;;;;;;;;;;;;;;;;;5027639;28;20392;-44
2023/04/02 08:31:47;;;;;;;;;;;;;;;;;;5028052;28;20004;-48
2023/04/02 08:34:13;;;;;;;;;;;;;;;;;;5027175;28;19977;-44
2023/04/02 08:36:38;;;;;;;;;;;;;;;;;;5027889;28;19990;-46
2023/04/02 08:39:04;;;;;;;;;;;;;;;;;;5027591;28;19908;-48
2023/04/02 08:41:31;;;;;;;;;;;;;;;;;;5027972;28;19909;-48
2023/04/02 08:43:57;;;;;;;;;;;;;;;;;;5027921;28;19909;-48
2023/04/02 08:46:23;;;;;;;;;;;;;;;;;;5027731;28;19905;-44
2023/04/02 08:48:49;;;;;;;;;;;;;;;;;;5027398;28;19939;-45
2023/04/02 08:51:15;;;;;;;;;;;;;;;;;;5027504;28;19948;-44
2023/04/02 08:53:41;;;;;;;;;;;;;;;;;;5027365;28;19999;-45
2023/04/02 08:56:07;;;;;;;;;;;;;;;;;;5027398;28;19905;-45
2023/04/02 08:58:34;;;;;;;;;;;;;;;;;;5027203;28;20419;-45
2023/04/02 09:01:00;;;;;;;;;;;;;;;;;;5027736;28;19912;-45
2023/04/02 09:03:27;;;;;;;;;;;;;;;;;;5026191;28;20284;-45
2023/04/02 09:05:53;;;;;;;;;;;;;;;;;;5026406;28;19959;-44
2023/04/02 09:08:19;;;;;;;;;;;;;;;;;;5027379;28;19917;-46
2023/04/02 09:10:45;;;;;;;;;;;;;;;;;;5026487;28;19909;-48
2023/04/02 09:13:11;;;;;;;;;;;;;;;;;;5027517;28;19952;-46
2023/04/02 09:15:37;;;;;;;;;;;;;;;;;;5027064;28;20464;-46
2023/04/02 09:18:02;;;;;;;;;;;;;;;;;;5027191;28;20373;-45
2023/04/02 09:20:28;;;;;;;;;;;;;;;;;;5026751;28;19913;-44
2023/04/02 09:22:54;;;;;;;;;;;;;;;;;;5037513;28;20372;-44
2023/04/02 09:25:20;;;;;;;;;;;;;;;;;;5046729;28;20363;-44
2023/04/02 09:27:48;;;;;;;;;;;;;;;;;;5023934;28;19916;-45
2023/04/02 09:30:14;;;;;;;;;;;;;;;;;;5017987;28;19913;-46
2023/04/02 09:32:41;;;;;;;;;;;;;;;;;;5028542;28;19928;-46
2023/04/02 09:35:08;;;;;;;;;;;;;;;;;;5028087;28;19905;-45
2023/04/02 09:37:36;;;;;;;;;;;;;;;;;;5030636;28;19916;-44
2023/04/02 09:40:02;;;;;;;;;;;;;;;;;;5026775;28;19917;-45
2023/04/02 09:42:29;;;;;;;;;;;;;;;;;;5027559;28;19955;-45
2023/04/02 09:44:55;;;;;;;;;;;;;;;;;;5027619;28;19920;-45
2023/04/02 09:47:21;;;;;;;;;;;;;;;;;;5026837;28;19908;-47
2023/04/02 09:49:47;;;;;;;;;;;;;;;;;;5027168;28;19916;-48
2023/04/02 09:52:12;;;;;;;;;;;;;;;;;;5031685;28;19909;-45
2023/04/02 09:54:41;;;;;;;;;;;;;;;;;;5032205;28;20007;-48
2023/04/02 09:57:07;;;;;;;;;;;;;;;;;;5027693;28;19913;-46
2023/04/02 09:59:34;;;;;;;;;;;;;;;;;;5027024;28;20343;-45
2023/04/02 10:02:02;;;;;;;;;;;;;;;;;;5018490;28;19944;-46
2023/04/02 10:04:28;;;;;;;;;;;;;;;;;;5027247;28;20312;-45
2023/04/02 10:06:56;;;;;;;;;;;;;;;;;;5027313;28;19905;-46
2023/04/02 10:09:23;;;;;;;;;;;;;;;;;;5027140;28;19913;-45
2023/04/02 10:11:49;;;;;;;;;;;;;;;;;;5025875;28;19908;-47
2023/04/02 10:14:15;;;;;;;;;;;;;;;;;;5032486;28;19913;-44
2023/04/02 10:16:41;;;;;;;;;;;;;;;;;;5027462;28;19909;-44
2023/04/02 10:19:07;;;;;;;;;;;;;;;;;;5027613;28;19916;-49
2023/04/02 10:21:33;;;;;;;;;;;;;;;;;;5027053;28;20384;-45
2023/04/02 10:23:59;;;;;;;;;;;;;;;;;;5027098;28;20442;-46
2023/04/02 10:26:26;;;;;;;;;;;;;;;;;;5027224;28;19912;-45
2023/04/02 10:28:52;;;;;;;;;;;;;;;;;;5026706;28;20311;-46
2023/04/02 10:31:18;;;;;;;;;;;;;;;;;;5024555;28;19905;-46
2023/04/02 10:33:44;;;;;;;;;;;;;;;;;;5017177;28;19913;-46
2023/04/02 10:36:10;;;;;;;;;;;;;;;;;;5025986;28;19912;-45
2023/04/02 10:38:37;;;;;;;;;;;;;;;;;;5026773;28;20011;-48
2023/04/02 10:41:04;;;;;;;;;;;;;;;;;;5026727;28;19905;-44
2023/04/02 10:43:30;;;;;;;;;;;;;;;;;;5025052;28;19913;-45
2023/04/02 10:45:56;;;;;;;;;;;;;;;;;;5026336;28;19916;-46
2023/04/02 10:48:23;;;;;;;;;;;;;;;;;;5028171;28;19920;-44
2023/04/02 10:50:49;;;;;;;;;;;;;;;;;;5027742;28;20000;-45
2023/04/02 10:53:15;;;;;;;;;;;;;;;;;;5027954;28;19909;-46
2023/04/02 10:55:42;;;;;;;;;;;;;;;;;;5028184;28;20403;-45
2023/04/02 10:58:08;;;;;;;;;;;;;;;;;;5029935;28;19905;-44
2023/04/02 11:00:34;;;;;;;;;;;;;;;;;;5031421;28;19905;-45
2023/04/02 11:03:00;;;;;;;;;;;;;;;;;;5024265;28;19947;-45
2023/04/02 11:05:26;;;;;;;;;;;;;;;;;;5032857;28;20307;-45
2023/04/02 11:07:52;;;;;;;;;;;;;;;;;;5038340;28;19918;-45
2023/04/02 11:10:18;;;;;;;;;;;;;;;;;;5011756;28;20000;-46
2023/04/02 11:12:44;;;;;;;;;;;;;;;;;;5011699;28;19905;-46
2023/04/02 11:15:10;;;;;;;;;;;;;;;;;;5011710;28;19913;-45
2023/04/02 11:17:36;;;;;;;;;;;;;;;;;;5011909;28;20423;-46
2023/04/02 11:20:02;;;;;;;;;;;;;;;;;;5010415;28;19909;-46
2023/04/02 11:22:28;;;;;;;;;;;;;;;;;;5017231;28;19964;-46
2023/04/02 11:24:54;;;;;;;;;;;;;;;;;;5012069;28;19909;-44
2023/04/02 11:27:20;;;;;;;;;;;;;;;;;;5011448;28;19908;-45
2023/04/02 11:29:46;;;;;;;;;;;;;;;;;;5011205;28;20324;-47
2023/04/02 11:32:12;;;;;;;;;;;;;;;;;;5011558;28;19913;-45
2023/04/02 11:34:38;;;;;;;;;;;;;;;;;;5011421;28;19952;-47
2023/04/02 11:37:04;;;;;;;;;;;;;;;;;;5011557;28;19909;-48
2023/04/02 11:39:30;;;;;;;;;;;;;;;;;;5011414;28;19905;-48
2023/04/02 11:41:56;;;;;;;;;;;;;;;;;;5011081;28;19952;-45
2023/04/02 11:44:22;;;;;;;;;;;;;;;;;;5011392;28;19917;-48
2023/04/02 11:46:49;;;;;;;;;;;;;;;;;;5009357;28;19909;-45
2023/04/02 11:49:15;;;;;;;;;;;;;;;;;;5011209;28;19984;-47
2023/04/02 11:51:41;;;;;;;;;;;;;;;;;;5011234;28;19996;-45
2023/04/02 11:54:07;;;;;;;;;;;;;;;;;;5011076;28;19917;-49
2023/04/02 11:56:33;;;;;;;;;;;;;;;;;;5011032;28;19996;-44
2023/04/02 11:58:59;;;;;;;;;;;;;;;;;;5010912;28;19912;-46
2023/04/02 12:01:25;;;;;;;;;;;;;;;;;;5011347;28;19905;-45
2023/04/02 12:03:51;;;;;;;;;;;;;;;;;;5010953;28;19910;-45
2023/04/02 12:06:17;;;;;;;;;;;;;;;;;;5006252;28;19921;-45
2023/04/02 12:08:46;;;;;;;;;;;;;;;;;;5020777;28;19916;-46
2023/04/02 12:11:11;;;;;;;;;;;;;;;;;;5045403;28;19917;-45
2023/04/02 12:13:37;;;;;;;;;;;;;;;;;;5030378;28;19909;-45
2023/04/02 12:16:03;;;;;;;;;;;;;;;;;;5021157;28;19951;-45
2023/04/02 12:18:30;;;;;;;;;;;;;;;;;;5028141;28;20063;-46
2023/04/02 12:20:55;;;;;;;;;;;;;;;;;;5030173;28;19909;-44
2023/04/02 12:23:21;;;;;;;;;;;;;;;;;;5029887;28;20012;-45
2023/04/02 12:25:47;;;;;;;;;;;;;;;;;;5029301;28;19909;-46
2023/04/02 12:28:16;;;;;;;;;;;;;;;;;;5028084;28;19913;-46
2023/04/02 12:30:42;;;;;;;;;;;;;;;;;;5029772;28;20742;-46
2023/04/02 12:33:08;;;;;;;;;;;;;;;;;;5030226;28;19905;-45
2023/04/02 12:35:35;;;;;;;;;;;;;;;;;;5030305;28;19905;-46
2023/04/02 12:38:01;;;;;;;;;;;;;;;;;;5045207;28;20350;-47
2023/04/02 12:40:27;;;;;;;;;;;;;;;;;;5029852;28;19909;-46
2023/04/02 12:42:53;;;;;;;;;;;;;;;;;;5026070;28;19909;-46
2023/04/02 12:45:18;;;;;;;;;;;;;;;;;;5029791;28;19954;-46
2023/04/02 12:47:45;;;;;;;;;;;;;;;;;;5029976;28;19936;-47
2023/04/02 12:50:11;;;;;;;;;;;;;;;;;;5029741;28;19950;-45
2023/04/02 12:52:36;;;;;;;;;;;;;;;;;;5029472;28;19991;-49
2023/04/02 12:55:03;;;;;;;;;;;;;;;;;;5028164;28;19912;-44
2023/04/02 12:57:30;;;;;;;;;;;;;;;;;;5038732;28;20567;-46
2023/04/02 12:59:56;;;;;;;;;;;;;;;;;;5050294;28;19905;-45
2023/04/02 13:02:22;;;;;;;;;;;;;;;;;;5038653;28;19954;-45
2023/04/02 13:04:48;;;;;;;;;;;;;;;;;;5047023;28;20407;-44
2023/04/02 13:07:14;;;;;;;;;;;;;;;;;;5044398;28;19909;-44
2023/04/02 13:09:40;;;;;;;;;;;;;;;;;;5029313;28;19913;-45
2023/04/02 13:12:06;;;;;;;;;;;;;;;;;;5028851;28;19909;-46
2023/04/02 13:14:32;;;;;;;;;;;;;;;;;;5029181;28;20004;-45
2023/04/02 13:16:58;;;;;;;;;;;;;;;;;;5028648;28;20015;-44
2023/04/02 13:19:24;;;;;;;;;;;;;;;;;;5028920;28;20424;-46
2023/04/02 13:21:51;;;;;;;;;;;;;;;;;;5028885;28;19996;-44
2023/04/02 13:24:19;;;;;;;;;;;;;;;;;;5029325;28;20007;-46
2023/04/02 13:26:46;;;;;;;;;;;;;;;;;;5028983;28;19991;-44
2023/04/02 13:29:12;;;;;;;;;;;;;;;;;;5027575;28;19937;-44
2023/04/02 13:31:38;;;;;;;;;;;;;;;;;;5022033;28;21556;-45
2023/04/02 13:34:04;;;;;;;;;;;;;;;;;;5021826;28;19905;-46
2023/04/02 13:36:30;;;;;;;;;;;;;;;;;;5030856;28;19910;-48
2023/04/02 13:38:56;;;;;;;;;;;;;;;;;;5029166;28;19978;-44
2023/04/02 13:41:22;;;;;;;;;;;;;;;;;;5029318;28;20004;-44
2023/04/02 13:43:48;;;;;;;;;;;;;;;;;;5028936;28;19919;-46
2023/04/02 13:46:14;;;;;;;;;;;;;;;;;;5028997;28;19992;-46
2023/04/02 13:48:40;;;;;;;;;;;;;;;;;;5028908;28;19912;-48
2023/04/02 13:51:06;;;;;;;;;;;;;;;;;;5028693;28;19905;-47
2023/04/02 13:53:32;;;;;;;;;;;;;;;;;;5027418;28;19909;-46
2023/04/02 13:55:58;;;;;;;;;;;;;;;;;;5028458;28;19940;-45
2023/04/02 13:58:24;;;;;;;;;;;;;;;;;;5029041;28;19931;-48
2023/04/02 14:00:50;;;;;;;;;;;;;;;;;;5028574;28;20323;-46
2023/04/02 14:03:17;;;;;;;;;;;;;;;;;;5027216;28;20616;-46
2023/04/02 14:05:43;;;;;;;;;;;;;;;;;;5038469;28;19923;-46
2023/04/02 14:08:09;;;;;;;;;;;;;;;;;;5044904;28;20007;-48
2023/04/02 14:10:35;;;;;;;;;;;;;;;;;;5028082;28;20039;-47
2023/04/02 14:13:01;;;;;;;;;;;;;;;;;;5028165;28;19951;-45
2023/04/02 14:15:27;;;;;;;;;;;;;;;;;;5027747;28;19983;-45
2023/04/02 14:17:53;;;;;;;;;;;;;;;;;;5027616;28;19932;-48
2023/04/02 14:20:19;;;;;;;;;;;;;;;;;;5009277;28;19920;-46
2023/04/02 14:22:45;;;;;;;;;;;;;;;;;;5028179;28;19928;-47
2023/04/02 14:25:11;;;;;;;;;;;;;;;;;;5027935;28;19909;-49
2023/04/02 14:27:37;;;;;;;;;;;;;;;;;;5028348;28;19958;-45
2023/04/02 14:30:03;;;;;;;;;;;;;;;;;;5028188;28;19905;-46
2023/04/02 14:32:28;;;;;;;;;;;;;;;;;;5026363;28;19909;-45
2023/04/02 14:34:55;;;;;;;;;;;;;;;;;;5027649;28;19912;-45
2023/04/02 14:37:21;;;;;;;;;;;;;;;;;;5027350;28;19901;-46
2023/04/02 14:39:47;;;;;;;;;;;;;;;;;;5026503;28;20415;-45
2023/04/02 14:42:14;;;;;;;;;;;;;;;;;;5026967;28;19910;-47
2023/04/02 14:44:41;;;;;;;;;;;;;;;;;;5026708;28;19909;-46
2023/04/02 14:47:07;;;;;;;;;;;;;;;;;;5041980;28;19949;-45
2023/04/02 14:49:33;;;;;;;;;;;;;;;;;;5026781;28;20434;-44
2023/04/02 14:51:59;;;;;;;;;;;;;;;;;;5027224;28;19952;-48
2023/04/02 14:54:24;;;;;;;;;;;;;;;;;;5027216;28;19996;-44
2023/04/02 14:56:51;;;;;;;;;;;;;;;;;;5027022;28;20352;-46
2023/04/02 14:59:18;;;;;;;;;;;;;;;;;;5026655;28;20376;-44
2023/04/02 15:01:45;;;;;;;;;;;;;;;;;;5025886;28;19909;-44
2023/04/02 15:04:11;;;;;;;;;;;;;;;;;;5025789;28;19948;-45
2023/04/02 15:06:37;;;;;;;;;;;;;;;;;;5030030;28;19951;-45
2023/04/02 15:09:03;;;;;;;;;;;;;;;;;;5027551;28;20016;-45
2023/04/02 15:11:29;;;;;;;;;;;;;;;;;;5027936;28;19917;-48
2023/04/02 15:13:55;;;;;;;;;;;;;;;;;;5041955;28;19936;-48
2023/04/02 15:16:22;;;;;;;;;;;;;;;;;;5047679;28;19958;-49
2023/04/02 15:18:48;;;;;;;;;;;;;;;;;;5041343;28;19996;-46
2023/04/02 15:21:15;;;;;;;;;;;;;;;;;;5026117;28;20011;-45
2023/04/02 15:23:41;;;;;;;;;;;;;;;;;;5027140;28;19909;-46
2023/04/02 15:26:07;;;;;;;;;;;;;;;;;;5027263;28;19955;-44
2023/04/02 15:28:33;;;;;;;;;;;;;;;;;;5026690;28;19909;-45
2023/04/02 15:30:59;;;;;;;;;;;;;;;;;;5027143;28;19943;-44
2023/04/02 15:33:25;;;;;;;;;;;;;;;;;;5028036;28;19913;-45
2023/04/02 15:35:51;;;;;;;;;;;;;;;;;;5027526;28;19909;-45
2023/04/02 15:38:17;;;;;;;;;;;;;;;;;;5027663;28;20000;-44
2023/04/02 15:40:43;;;;;;;;;;;;;;;;;;5027315;28;19905;-44
2023/04/02 15:43:09;;;;;;;;;;;;;;;;;;5027721;28;19909;-45
2023/04/02 15:45:35;;;;;;;;;;;;;;;;;;5030690;28;19966;-45
2023/04/02 15:48:01;;;;;;;;;;;;;;;;;;5030101;28;20013;-44
2023/04/02 15:50:27;;;;;;;;;;;;;;;;;;5030947;28;19913;-44
2023/04/02 15:52:52;;;;;;;;;;;;;;;;;;5030795;28;19905;-46
2023/04/02 15:55:19;;;;;;;;;;;;;;;;;;5029171;28;19999;-45
2023/04/02 15:57:45;;;;;;;;;;;;;;;;;;5031495;28;19915;-44
2023/04/02 16:00:11;;;;;;;;;;;;;;;;;;5040697;28;19908;-44
2023/04/02 16:02:37;;;;;;;;;;;;;;;;;;5048681;28;19909;-47
2023/04/02 16:05:03;;;;;;;;;;;;;;;;;;5045547;28;19909;-45
2023/04/02 16:07:29;;;;;;;;;;;;;;;;;;5030564;28;19912;-46
2023/04/02 16:09:55;;;;;;;;;;;;;;;;;;5030217;28;20414;-46
2023/04/02 16:12:21;;;;;;;;;;;;;;;;;;5029176;28;19905;-45
2023/04/02 16:14:47;;;;;;;;;;;;;;;;;;5030513;28;19919;-44
2023/04/02 16:17:13;;;;;;;;;;;;;;;;;;5028780;28;20301;-44
2023/04/02 16:19:39;;;;;;;;;;;;;;;;;;5029717;28;19909;-48
2023/04/02 16:22:05;;;;;;;;;;;;;;;;;;5029057;28;20364;-45
2023/04/02 16:24:31;;;;;;;;;;;;;;;;;;5029987;28;19920;-47
2023/04/02 16:26:57;;;;;;;;;;;;;;;;;;5029846;28;19909;-43
2023/04/02 16:29:23;;;;;;;;;;;;;;;;;;5025334;28;19916;-48
2023/04/02 16:31:49;;;;;;;;;;;;;;;;;;5032573;28;20024;-47
2023/04/02 16:34:15;;;;;;;;;;;;;;;;;;5028454;28;19999;-46
2023/04/02 16:36:41;;;;;;;;;;;;;;;;;;5028991;28;19913;-46
2023/04/02 16:39:07;;;;;;;;;;;;;;;;;;5027367;28;19912;-46
2023/04/02 16:41:33;;;;;;;;;;;;;;;;;;5028777;28;19959;-46
2023/04/02 16:43:59;;;;;;;;;;;;;;;;;;5037554;28;20023;-46
2023/04/02 16:46:25;;;;;;;;;;;;;;;;;;5031857;28;19912;-47
2023/04/02 16:48:51;;;;;;;;;;;;;;;;;;5029461;28;19909;-47
2023/04/02 16:51:18;;;;;;;;;;;;;;;;;;5028105;28;19913;-47
2023/04/02 16:53:44;;;;;;;;;;;;;;;;;;5027736;28;20292;-47
2023/04/02 16:56:10;;;;;;;;;;;;;;;;;;5027324;28;19932;-48
2023/04/02 16:58:36;;;;;;;;;;;;;;;;;;5017958;28;19977;-48
2023/04/02 17:01:02;;;;;;;;;;;;;;;;;;5030247;28;20015;-47
2023/04/02 17:03:28;;;;;;;;;;;;;;;;;;5028302;28;19912;-47
2023/04/02 17:05:54;;;;;;;;;;;;;;;;;;5028221;28;19994;-47
2023/04/02 17:08:20;;;;;;;;;;;;;;;;;;5025666;28;19959;-49
2023/04/02 17:10:46;;;;;;;;;;;;;;;;;;5027151;28;19909;-48
2023/04/02 17:13:12;;;;;;;;;;;;;;;;;;5027447;28;19999;-51
2023/04/02 17:15:39;;;;;;;;;;;;;;;;;;5026183;28;19920;-50
2023/04/02 17:18:05;;;;;;;;;;;;;;;;;;5027160;28;19909;-49
2023/04/02 17:20:31;;;;;;;;;;;;;;;;;;5025527;28;19983;-49
2023/04/02 17:22:57;;;;;;;;;;;;;;;;;;5021808;28;19913;-47
2023/04/02 17:25:23;;;;;;;;;;;;;;;;;;5024413;28;19959;-49
2023/04/02 17:27:49;;;;;;;;;;;;;;;;;;5009185;28;19909;-48
2023/04/02 17:30:16;;;;;;;;;;;;;;;;;;5026183;28;19999;-50
2023/04/02 17:32:42;;;;;;;;;;;;;;;;;;5025934;28;19928;-46
2023/04/02 17:35:07;;;;;;;;;;;;;;;;;;5025901;28;19917;-47
2023/04/02 17:37:33;;;;;;;;;;;;;;;;;;5026337;28;19909;-48
2023/04/02 17:39:59;;;;;;;;;;;;;;;;;;5027823;28;19953;-47
2023/04/02 17:42:25;;;;;;;;;;;;;;;;;;5026696;28;19974;-50
2023/04/02 17:44:51;;;;;;;;;;;;;;;;;;5025909;28;19964;-47
2023/04/02 17:47:18;;;;;;;;;;;;;;;;;;5023954;28;19913;-47
2023/04/02 17:49:44;;;;;;;;;;;;;;;;;;5024092;28;19995;-47
2023/04/02 17:52:10;;;;;;;;;;;;;;;;;;5024091;28;20428;-47
2023/04/02 17:54:37;;;;;;;;;;;;;;;;;;5024327;28;19967;-46
2023/04/02 17:57:03;;;;;;;;;;;;;;;;;;5004941;28;20391;-47
2023/04/02 17:59:29;;;;;;;;;;;;;;;;;;5024531;28;19909;-46
2023/04/02 18:01:55;;;;;;;;;;;;;;;;;;5005862;28;20012;-47
2023/04/02 18:04:21;;;;;;;;;;;;;;;;;;5005555;28;19917;-47
2023/04/02 18:06:47;;;;;;;;;;;;;;;;;;5024026;28;20296;-46
2023/04/02 18:09:12;;;;;;;;;;;;;;;;;;5023234;28;19913;-47
2023/04/02 18:11:38;;;;;;;;;;;;;;;;;;5023630;28;19993;-47
2023/04/02 18:14:04;;;;;;;;;;;;;;;;;;5024083;28;19909;-45
2023/04/02 18:16:30;;;;;;;;;;;;;;;;;;5023839;28;19920;-48
2023/04/02 18:18:57;;;;;;;;;;;;;;;;;;5024513;28;19913;-48
2023/04/02 18:21:24;;;;;;;;;;;;;;;;;;5038737;28;20371;-47
2023/04/02 18:23:52;;;;;;;;;;;;;;;;;;5023120;28;19952;-49
2023/04/02 18:26:18;;;;;;;;;;;;;;;;;;5024205;28;19960;-47
2023/04/02 18:28:44;;;;;;;;;;;;;;;;;;5023564;28;19952;-46
2023/04/02 18:31:10;;;;;;;;;;;;;;;;;;5023651;28;19913;-46
2023/04/02 18:33:36;;;;;;;;;;;;;;;;;;5024153;28;19967;-46
2023/04/02 18:36:04;;;;;;;;;;;;;;;;;;5023536;28;19940;-48
2023/04/02 18:38:30;;;;;;;;;;;;;;;;;;5039158;28;19963;-47
2023/04/02 18:40:56;;;;;;;;;;;;;;;;;;5024511;28;19923;-46
2023/04/02 18:43:23;;;;;;;;;;;;;;;;;;5023573;28;19921;-45
2023/04/02 18:45:49;;;;;;;;;;;;;;;;;;5023717;28;19913;-45
2023/04/02 18:48:15;;;;;;;;;;;;;;;;;;5023518;28;19909;-50
2023/04/02 18:50:45;;;;;;;;;;;;;;;;;;5022306;28;19913;-45
2023/04/02 18:53:11;;;;;;;;;;;;;;;;;;5004077;28;20345;-46
2023/04/02 18:55:37;;;;;;;;;;;;;;;;;;5023691;28;20032;-47
2023/04/02 18:58:03;;;;;;;;;;;;;;;;;;5024085;28;20023;-46
2023/04/02 19:00:29;;;;;;;;;;;;;;;;;;5023877;28;20327;-46
2023/04/02 19:02:55;;;;;;;;;;;;;;;;;;5024349;28;19909;-45
2023/04/02 19:05:21;;;;;;;;;;;;;;;;;;5022824;28;20308;-45
2023/04/02 19:07:47;;;;;;;;;;;;;;;;;;5023233;28;19909;-46
2023/04/02 19:10:13;;;;;;;;;;;;;;;;;;5012367;28;19908;-46
2023/04/02 19:12:39;;;;;;;;;;;;;;;;;;5005142;28;19917;-46
2023/04/02 19:15:05;;;;;;;;;;;;;;;;;;5024428;28;20201;-45
2023/04/02 19:17:32;;;;;;;;;;;;;;;;;;5006057;28;20443;-46
2023/04/02 19:19:58;;;;;;;;;;;;;;;;;;5027150;28;19912;-45
2023/04/02 19:22:28;;;;;;;;;;;;;;;;;;5027615;28;19955;-49
2023/04/02 19:24:54;;;;;;;;;;;;;;;;;;5027477;28;19913;-46
2023/04/02 19:27:20;;;;;;;;;;;;;;;;;;5027364;28;20000;-46
2023/04/02 19:29:47;;;;;;;;;;;;;;;;;;5027499;28;20614;-45
2023/04/02 19:32:13;;;;;;;;;;;;;;;;;;5028111;28;19957;-46
2023/04/02 19:34:39;;;;;;;;;;;;;;;;;;5027705;28;19943;-48
2023/04/02 19:37:06;;;;;;;;;;;;;;;;;;5027440;28;20411;-46
2023/04/02 19:39:33;;;;;;;;;;;;;;;;;;5009393;28;19970;-45
2023/04/02 19:41:58;;;;;;;;;;;;;;;;;;5026852;28;19909;-46
2023/04/02 19:44:24;;;;;;;;;;;;;;;;;;5027480;28;19920;-48
2023/04/02 19:46:50;;;;;;;;;;;;;;;;;;5026932;28;20419;-46
2023/04/02 19:49:18;;;;;;;;;;;;;;;;;;5027282;28;19929;-46
2023/04/02 19:51:44;;;;;;;;;;;;;;;;;;5027186;28;19994;-46
2023/04/02 19:54:11;;;;;;;;;;;;;;;;;;5027739;28;19983;-46
2023/04/02 19:56:37;;;;;;;;;;;;;;;;;;5026203;28;19964;-48
2023/04/02 19:59:03;;;;;;;;;;;;;;;;;;5026979;28;19971;-46
2023/04/02 20:01:30;;;;;;;;;;;;;;;;;;5026197;28;19968;-47
2023/04/02 20:03:56;;;;;;;;;;;;;;;;;;5027144;28;19919;-46
2023/04/02 20:06:22;;;;;;;;;;;;;;;;;;5009319;28;19913;-47
2023/04/02 20:08:48;;;;;;;;;;;;;;;;;;5026824;28;20400;-46
2023/04/02 20:11:15;;;;;;;;;;;;;;;;;;5026899;28;20004;-47
2023/04/02 20:13:41;;;;;;;;;;;;;;;;;;5027072;28;19909;-48
2023/04/02 20:16:07;;;;;;;;;;;;;;;;;;5027222;28;19924;-45
2023/04/02 20:18:33;;;;;;;;;;;;;;;;;;5026531;28;20328;-49
2023/04/02 20:20:59;;;;;;;;;;;;;;;;;;5008587;28;19905;-46
2023/04/02 20:23:25;;;;;;;;;;;;;;;;;;5026750;28;19905;-49
2023/04/02 20:25:53;;;;;;;;;;;;;;;;;;5025957;28;19963;-50
2023/04/02 20:28:19;;;;;;;;;;;;;;;;;;5008474;28;19909;-46
2023/04/02 20:30:45;;;;;;;;;;;;;;;;;;5041210;28;19928;-48
2023/04/02 20:33:11;;;;;;;;;;;;;;;;;;5009425;28;20117;-47
2023/04/02 20:35:37;;;;;;;;;;;;;;;;;;5025599;28;19996;-46
2023/04/02 20:38:06;;;;;;;;;;;;;;;;;;5025812;28;19909;-45
2023/04/02 20:40:32;;;;;;;;;;;;;;;;;;5026292;28;19909;-44
2023/04/02 20:42:58;;;;;;;;;;;;;;;;;;5026722;28;19909;-45
2023/04/02 20:45:26;;;;;;;;;;;;;;;;;;5025999;28;20011;-46
2023/04/02 20:47:52;;;;;;;;;;;;;;;;;;5026715;28;20350;-45
2023/04/02 20:50:18;;;;;;;;;;;;;;;;;;5026148;28;19909;-46
2023/04/02 20:52:45;;;;;;;;;;;;;;;;;;5026495;28;19946;-45
2023/04/02 20:55:12;;;;;;;;;;;;;;;;;;5009363;28;19917;-47
2023/04/02 20:57:39;;;;;;;;;;;;;;;;;;5025175;28;19955;-45
2023/04/02 21:00:07;;;;;;;;;;;;;;;;;;5027018;28;19912;-47
2023/04/02 21:02:32;;;;;;;;;;;;;;;;;;5040441;28;20296;-46
2023/04/02 21:04:59;;;;;;;;;;;;;;;;;;5026293;28;19920;-46
2023/04/02 21:07:25;;;;;;;;;;;;;;;;;;5026091;28;19936;-49
2023/04/02 21:09:52;;;;;;;;;;;;;;;;;;5026313;28;19912;-49
2023/04/02 21:12:18;;;;;;;;;;;;;;;;;;5025905;28;19909;-46
2023/04/02 21:14:44;;;;;;;;;;;;;;;;;;5026481;28;19912;-45
2023/04/02 21:17:10;;;;;;;;;;;;;;;;;;5026071;28;20399;-47
2023/04/02 21:19:36;;;;;;;;;;;;;;;;;;5025862;28;19977;-46
2023/04/02 21:22:02;;;;;;;;;;;;;;;;;;5026095;28;19941;-47
2023/04/02 21:24:29;;;;;;;;;;;;;;;;;;5025900;28;19970;-45
2023/04/02 21:26:55;;;;;;;;;;;;;;;;;;5026339;28;20350;-49
2023/04/02 21:29:21;;;;;;;;;;;;;;;;;;5025543;28;19995;-47
2023/04/02 21:31:47;;;;;;;;;;;;;;;;;;5025968;28;20021;-48
2023/04/02 21:34:13;;;;;;;;;;;;;;;;;;5025679;28;19909;-47
2023/04/02 21:36:38;;;;;;;;;;;;;;;;;;5007272;28;19916;-48
2023/04/02 21:39:04;;;;;;;;;;;;;;;;;;5006383;28;19909;-49
2023/04/02 21:41:30;;;;;;;;;;;;;;;;;;5025659;28;19921;-46